sensor_id;sensor_type;location;lat;lon;timestamp;pressure;altitude;pressure_sealevel;temperature;humidity
3968;BME280;9221;42.646;23.380;2023-03-03T00:02:01;94573.69;;;5.17;91.15
3968;BME280;9221;42.646;23.380;2023-03-03T00:04:26;94516.63;;;4.88;90.97
3968;BME280;9221;42.646;23.380;2023-03-03T00:06:52;94511.41;;;4.88;91.55
3968;BME280;9221;42.646;23.380;2023-03-03T00:09:17;94621.94;;;5.13;91.71
3968;BME280;9221;42.646;23.380;2023-03-03T00:11:42;94523.53;;;4.89;91.08
3968;BME280;9221;42.646;23.380;2023-03-03T00:14:22;94602.69;;;5.25;91.52
3968;BME280;9221;42.646;23.380;2023-03-03T00:16:50;94517.84;;;4.95;90.96
3968;BME280;9221;42.646;23.380;2023-03-03T00:19:19;94549.44;;;5.15;91.32
3968;BME280;9221;42.646;23.380;2023-03-03T00:21:47;94562.75;;;5.23;91.05
3968;BME280;9221;42.646;23.380;2023-03-03T00:26:39;94574.41;;;5.30;91.10
3968;BME280;9221;42.646;23.380;2023-03-03T00:29:33;94596.28;;;5.29;91.52
3968;BME280;9221;42.646;23.380;2023-03-03T00:34:37;94604.72;;;5.21;92.13
3968;BME280;9221;42.646;23.380;2023-03-03T00:37:02;94463.78;;;4.50;92.18
3968;BME280;9221;42.646;23.380;2023-03-03T00:39:36;94557.78;;;5.20;92.15
3968;BME280;9221;42.646;23.380;2023-03-03T00:42:09;94521.16;;;4.97;91.96
3968;BME280;9221;42.646;23.380;2023-03-03T00:49:38;94527.09;;;5.22;91.43
3968;BME280;9221;42.646;23.380;2023-03-03T00:52:14;94522.13;;;5.07;91.29
3968;BME280;9221;42.646;23.380;2023-03-03T00:54:40;94558.25;;;5.36;91.33
3968;BME280;9221;42.646;23.380;2023-03-03T00:57:06;94519.41;;;5.32;91.00
3968;BME280;9221;42.646;23.380;2023-03-03T00:59:31;94518.78;;;5.28;90.79
3968;BME280;9221;42.646;23.380;2023-03-03T01:01:57;94522.34;;;5.27;91.22
3968;BME280;9221;42.646;23.380;2023-03-03T01:04:22;94508.81;;;5.22;91.00
3968;BME280;9221;42.646;23.380;2023-03-03T01:06:47;94477.56;;;5.09;91.10
3968;BME280;9221;42.646;23.380;2023-03-03T01:09:14;94464.16;;;4.91;91.51
3968;BME280;9221;42.646;23.380;2023-03-03T01:11:39;94519.75;;;5.16;91.12
3968;BME280;9221;42.646;23.380;2023-03-03T01:14:05;94538.88;;;5.16;91.30
3968;BME280;9221;42.646;23.380;2023-03-03T01:16:30;94499.44;;;5.08;91.55
3968;BME280;9221;42.646;23.380;2023-03-03T01:18:56;94513.94;;;4.89;91.95
3968;BME280;9221;42.646;23.380;2023-03-03T01:21:22;94485.75;;;5.27;91.91
3968;BME280;9221;42.646;23.380;2023-03-03T01:23:47;94508.09;;;5.31;91.65
3968;BME280;9221;42.646;23.380;2023-03-03T01:26:13;94491.94;;;4.81;91.37
3968;BME280;9221;42.646;23.380;2023-03-03T01:28:38;94507.03;;;5.22;91.47
3968;BME280;9221;42.646;23.380;2023-03-03T01:31:05;94438.13;;;4.78;91.91
3968;BME280;9221;42.646;23.380;2023-03-03T01:33:31;94526.88;;;5.14;92.18
3968;BME280;9221;42.646;23.380;2023-03-03T01:35:57;94527.47;;;5.17;92.09
3968;BME280;9221;42.646;23.380;2023-03-03T01:38:22;94513.34;;;5.08;91.47
3968;BME280;9221;42.646;23.380;2023-03-03T01:40:55;94474.63;;;4.91;91.74
3968;BME280;9221;42.646;23.380;2023-03-03T01:43:22;94426.88;;;4.78;91.72
3968;BME280;9221;42.646;23.380;2023-03-03T01:48:27;94512.59;;;5.18;91.81
3968;BME280;9221;42.646;23.380;2023-03-03T01:50:58;94506.19;;;5.11;91.94
3968;BME280;9221;42.646;23.380;2023-03-03T01:53:35;94493.25;;;5.09;91.96
3968;BME280;9221;42.646;23.380;2023-03-03T01:56:02;94427.81;;;4.65;91.75
3968;BME280;9221;42.646;23.380;2023-03-03T01:58:34;94482.69;;;4.99;92.03
3968;BME280;9221;42.646;23.380;2023-03-03T02:01:07;94495.84;;;4.86;92.10
3968;BME280;9221;42.646;23.380;2023-03-03T02:03:33;94478.66;;;4.95;93.25
3968;BME280;9221;42.646;23.380;2023-03-03T02:06:05;94491.72;;;5.06;92.68
3968;BME280;9221;42.646;23.380;2023-03-03T02:08:37;94502.41;;;5.03;92.41
3968;BME280;9221;42.646;23.380;2023-03-03T02:11:04;94484.47;;;5.10;91.82
3968;BME280;9221;42.646;23.380;2023-03-03T02:13:30;94481.03;;;5.21;91.67
3968;BME280;9221;42.646;23.380;2023-03-03T02:15:56;94512.38;;;5.21;91.51
3968;BME280;9221;42.646;23.380;2023-03-03T02:18:23;94455.84;;;5.08;91.66
3968;BME280;9221;42.646;23.380;2023-03-03T02:21:07;94462.94;;;5.18;91.33
3968;BME280;9221;42.646;23.380;2023-03-03T02:26:21;94468.41;;;5.15;90.76
3968;BME280;9221;42.646;23.380;2023-03-03T02:28:48;94433.28;;;4.85;90.81
3968;BME280;9221;42.646;23.380;2023-03-03T02:31:17;94492.53;;;5.18;91.73
3968;BME280;9221;42.646;23.380;2023-03-03T02:33:46;94473.53;;;5.05;91.71
3968;BME280;9221;42.646;23.380;2023-03-03T02:44:25;94492.03;;;5.24;91.72
3968;BME280;9221;42.646;23.380;2023-03-03T02:46:52;94445.75;;;4.93;91.26
3968;BME280;9221;42.646;23.380;2023-03-03T02:49:25;94503.13;;;5.17;91.47
3968;BME280;9221;42.646;23.380;2023-03-03T02:51:51;94491.47;;;5.09;91.67
3968;BME280;9221;42.646;23.380;2023-03-03T02:54:18;94426.50;;;4.71;92.04
3968;BME280;9221;42.646;23.380;2023-03-03T02:56:44;94476.97;;;5.05;91.95
3968;BME280;9221;42.646;23.380;2023-03-03T02:59:10;94464.28;;;5.01;92.74
3968;BME280;9221;42.646;23.380;2023-03-03T03:01:36;94512.81;;;4.69;92.13
3968;BME280;9221;42.646;23.380;2023-03-03T03:06:33;94479.81;;;5.14;92.27
3968;BME280;9221;42.646;23.380;2023-03-03T03:08:58;94417.38;;;4.77;91.97
3968;BME280;9221;42.646;23.380;2023-03-03T03:11:25;94372.13;;;4.53;91.76
3968;BME280;9221;42.646;23.380;2023-03-03T03:13:50;94452.25;;;5.09;91.87
3968;BME280;9221;42.646;23.380;2023-03-03T03:16:16;94414.97;;;4.85;91.77
3968;BME280;9221;42.646;23.380;2023-03-03T03:18:41;94443.13;;;5.04;92.08
3968;BME280;9221;42.646;23.380;2023-03-03T03:21:08;94480.06;;;4.88;92.13
3968;BME280;9221;42.646;23.380;2023-03-03T03:23:34;94473.53;;;5.16;91.62
3968;BME280;9221;42.646;23.380;2023-03-03T03:26:00;94478.03;;;5.25;92.24
3968;BME280;9221;42.646;23.380;2023-03-03T03:28:25;94452.03;;;5.13;92.61
3968;BME280;9221;42.646;23.380;2023-03-03T03:30:51;94461.53;;;5.25;92.55
3968;BME280;9221;42.646;23.380;2023-03-03T03:33:16;94401.81;;;4.98;91.87
3968;BME280;9221;42.646;23.380;2023-03-03T03:35:42;94494.06;;;5.32;91.68
3968;BME280;9221;42.646;23.380;2023-03-03T03:38:10;94443.56;;;5.20;91.69
3968;BME280;9221;42.646;23.380;2023-03-03T03:40:36;94405.47;;;4.84;91.66
3968;BME280;9221;42.646;23.380;2023-03-03T03:43:02;94410.25;;;4.79;92.41
3968;BME280;9221;42.646;23.380;2023-03-03T03:45:27;94481.38;;;5.05;92.88
3968;BME280;9221;42.646;23.380;2023-03-03T03:47:52;94492.41;;;5.20;93.06
3968;BME280;9221;42.646;23.380;2023-03-03T03:50:18;94374.28;;;4.71;92.75
3968;BME280;9221;42.646;23.380;2023-03-03T03:52:43;94423.06;;;5.04;93.67
3968;BME280;9221;42.646;23.380;2023-03-03T03:55:09;94390.66;;;4.84;93.35
3968;BME280;9221;42.646;23.380;2023-03-03T03:57:34;94408.69;;;4.87;93.56
3968;BME280;9221;42.646;23.380;2023-03-03T04:00:00;94427.09;;;4.97;93.79
3968;BME280;9221;42.646;23.380;2023-03-03T04:02:25;94479.09;;;5.23;94.07
3968;BME280;9221;42.646;23.380;2023-03-03T04:04:50;94457.72;;;5.29;94.17
3968;BME280;9221;42.646;23.380;2023-03-03T04:07:16;94454.63;;;5.24;93.59
3968;BME280;9221;42.646;23.380;2023-03-03T04:09:41;94426.75;;;5.02;94.60
3968;BME280;9221;42.646;23.380;2023-03-03T04:12:07;94259.56;;;3.90;94.72
3968;BME280;9221;42.646;23.380;2023-03-03T04:14:32;94426.13;;;4.98;95.11
3968;BME280;9221;42.646;23.380;2023-03-03T04:16:58;94474.63;;;4.91;95.54
3968;BME280;9221;42.646;23.380;2023-03-03T04:19:23;94426.72;;;4.90;95.37
3968;BME280;9221;42.646;23.380;2023-03-03T04:21:49;94473.66;;;5.03;95.25
3968;BME280;9221;42.646;23.380;2023-03-03T04:24:15;94438.25;;;4.99;95.17
3968;BME280;9221;42.646;23.380;2023-03-03T04:26:41;94466.41;;;4.96;95.50
3968;BME280;9221;42.646;23.380;2023-03-03T04:29:06;94389.59;;;4.64;96.37
3968;BME280;9221;42.646;23.380;2023-03-03T04:31:31;94387.81;;;4.76;96.19
3968;BME280;9221;42.646;23.380;2023-03-03T04:33:57;94431.00;;;5.14;95.93
3968;BME280;9221;42.646;23.380;2023-03-03T04:36:22;94498.13;;;5.14;96.28
3968;BME280;9221;42.646;23.380;2023-03-03T04:38:48;94425.41;;;5.19;95.59
3968;BME280;9221;42.646;23.380;2023-03-03T04:41:14;94460.56;;;5.15;95.46
3968;BME280;9221;42.646;23.380;2023-03-03T04:43:40;94389.59;;;4.87;95.32
3968;BME280;9221;42.646;23.380;2023-03-03T04:46:05;94423.50;;;5.09;96.02
3968;BME280;9221;42.646;23.380;2023-03-03T04:48:31;94359.41;;;4.71;95.49
3968;BME280;9221;42.646;23.380;2023-03-03T04:50:56;94406.44;;;4.83;95.57
3968;BME280;9221;42.646;23.380;2023-03-03T04:53:22;94435.53;;;4.89;95.93
3968;BME280;9221;42.646;23.380;2023-03-03T04:55:51;94461.06;;;5.08;95.93
3968;BME280;9221;42.646;23.380;2023-03-03T04:58:17;94422.34;;;4.91;96.56
3968;BME280;9221;42.646;23.380;2023-03-03T05:00:47;94442.06;;;5.06;96.06
3968;BME280;9221;42.646;23.380;2023-03-03T05:03:17;94437.53;;;4.97;96.30
3968;BME280;9221;42.646;23.380;2023-03-03T05:05:45;94387.22;;;4.61;96.36
3968;BME280;9221;42.646;23.380;2023-03-03T05:08:10;94406.34;;;4.73;96.40
3968;BME280;9221;42.646;23.380;2023-03-03T05:10:36;94463.91;;;4.94;96.77
3968;BME280;9221;42.646;23.380;2023-03-03T05:13:02;94455.34;;;4.92;97.52
3968;BME280;9221;42.646;23.380;2023-03-03T05:15:27;94314.81;;;4.06;97.63
3968;BME280;9221;42.646;23.380;2023-03-03T05:17:52;94420.47;;;4.82;97.70
3968;BME280;9221;42.646;23.380;2023-03-03T05:20:21;94456.91;;;5.06;97.09
3968;BME280;9221;42.646;23.380;2023-03-03T05:22:46;94452.53;;;4.95;97.34
3968;BME280;9221;42.646;23.380;2023-03-03T05:25:12;94464.41;;;4.99;97.61
3968;BME280;9221;42.646;23.380;2023-03-03T05:27:37;94450.47;;;4.99;97.36
3968;BME280;9221;42.646;23.380;2023-03-03T05:30:03;94466.06;;;5.00;96.90
3968;BME280;9221;42.646;23.380;2023-03-03T05:32:28;94414.28;;;4.71;96.97
3968;BME280;9221;42.646;23.380;2023-03-03T05:34:54;94489.69;;;5.10;96.93
3968;BME280;9221;42.646;23.380;2023-03-03T05:37:19;94430.66;;;4.85;96.37
3968;BME280;9221;42.646;23.380;2023-03-03T05:39:45;94454.44;;;5.04;96.93
3968;BME280;9221;42.646;23.380;2023-03-03T05:42:11;94401.00;;;4.74;96.87
3968;BME280;9221;42.646;23.380;2023-03-03T05:44:37;94334.75;;;4.19;96.94
3968;BME280;9221;42.646;23.380;2023-03-03T05:47:03;94456.75;;;5.19;96.87
3968;BME280;9221;42.646;23.380;2023-03-03T05:49:28;94414.03;;;4.86;96.79
3968;BME280;9221;42.646;23.380;2023-03-03T05:51:54;94501.22;;;5.07;96.24
3968;BME280;9221;42.646;23.380;2023-03-03T05:54:19;94435.41;;;4.91;96.47
3968;BME280;9221;42.646;23.380;2023-03-03T05:56:45;94481.25;;;5.18;96.47
3968;BME280;9221;42.646;23.380;2023-03-03T05:59:10;94474.81;;;5.33;96.44
3968;BME280;9221;42.646;23.380;2023-03-03T06:01:35;94466.84;;;5.35;95.85
3968;BME280;9221;42.646;23.380;2023-03-03T06:04:01;94394.47;;;4.80;95.63
3968;BME280;9221;42.646;23.380;2023-03-03T06:06:26;94469.69;;;5.43;95.71
3968;BME280;9221;42.646;23.380;2023-03-03T06:08:52;94360.84;;;4.75;95.27
3968;BME280;9221;42.646;23.380;2023-03-03T06:11:18;94465.28;;;5.43;96.13
3968;BME280;9221;42.646;23.380;2023-03-03T06:13:43;94453.88;;;5.45;95.93
3968;BME280;9221;42.646;23.380;2023-03-03T06:16:09;94455.25;;;5.60;95.58
3968;BME280;9221;42.646;23.380;2023-03-03T06:18:34;94422.63;;;5.43;95.11
3968;BME280;9221;42.646;23.380;2023-03-03T06:20:59;94474.03;;;5.65;94.55
3968;BME280;9221;42.646;23.380;2023-03-03T06:23:25;94486.91;;;5.57;94.24
3968;BME280;9221;42.646;23.380;2023-03-03T06:25:50;94504.25;;;5.58;94.61
3968;BME280;9221;42.646;23.380;2023-03-03T06:28:17;94476.16;;;5.71;95.08
3968;BME280;9221;42.646;23.380;2023-03-03T06:30:42;94475.44;;;5.69;94.52
3968;BME280;9221;42.646;23.380;2023-03-03T06:33:08;94457.53;;;5.65;95.16
3968;BME280;9221;42.646;23.380;2023-03-03T06:35:33;94461.72;;;5.45;95.28
3968;BME280;9221;42.646;23.380;2023-03-03T06:37:59;94477.19;;;5.80;95.37
3968;BME280;9221;42.646;23.380;2023-03-03T06:40:24;94471.28;;;5.67;94.32
3968;BME280;9221;42.646;23.380;2023-03-03T06:42:50;94430.47;;;5.43;94.39
3968;BME280;9221;42.646;23.380;2023-03-03T06:45:15;94476.66;;;5.65;94.08
3968;BME280;9221;42.646;23.380;2023-03-03T06:47:41;94425.59;;;5.38;94.44
3968;BME280;9221;42.646;23.380;2023-03-03T06:50:08;94487.25;;;5.64;94.67
3968;BME280;9221;42.646;23.380;2023-03-03T06:52:35;94371.69;;;5.15;94.65
3968;BME280;9221;42.646;23.380;2023-03-03T06:55:10;94496.00;;;5.85;94.96
3968;BME280;9221;42.646;23.380;2023-03-03T06:57:36;94451.91;;;5.69;94.75
3968;BME280;9221;42.646;23.380;2023-03-03T07:00:23;94522.72;;;5.89;94.36
3968;BME280;9221;42.646;23.380;2023-03-03T07:03:01;94429.59;;;5.54;93.58
3968;BME280;9221;42.646;23.380;2023-03-03T07:05:29;94482.50;;;5.90;92.65
3968;BME280;9221;42.646;23.380;2023-03-03T07:07:57;94493.22;;;5.98;92.99
3968;BME280;9221;42.646;23.380;2023-03-03T07:10:27;94526.78;;;6.04;92.83
3968;BME280;9221;42.646;23.380;2023-03-03T07:12:56;94495.34;;;6.04;91.61
3968;BME280;9221;42.646;23.380;2023-03-03T07:15:25;94482.75;;;5.98;91.47
3968;BME280;9221;42.646;23.380;2023-03-03T07:17:55;94416.47;;;5.65;91.76
3968;BME280;9221;42.646;23.380;2023-03-03T07:20:31;94473.38;;;5.84;91.86
3968;BME280;9221;42.646;23.380;2023-03-03T07:22:57;94575.44;;;6.07;92.31
3968;BME280;9221;42.646;23.380;2023-03-03T07:25:31;94478.88;;;6.14;91.33
3968;BME280;9221;42.646;23.380;2023-03-03T07:28:10;94433.88;;;5.87;91.24
3968;BME280;9221;42.646;23.380;2023-03-03T07:30:40;94430.19;;;5.90;90.97
3968;BME280;9221;42.646;23.380;2023-03-03T07:33:16;94421.88;;;5.85;91.01
3968;BME280;9221;42.646;23.380;2023-03-03T07:35:43;94457.69;;;6.17;91.13
3968;BME280;9221;42.646;23.380;2023-03-03T07:38:16;94437.50;;;6.07;91.28
3968;BME280;9221;42.646;23.380;2023-03-03T07:40:50;94480.72;;;6.34;89.26
3968;BME280;9221;42.646;23.380;2023-03-03T07:46:34;94479.31;;;6.30;90.44
3968;BME280;9221;42.646;23.380;2023-03-03T07:49:13;94408.56;;;5.88;90.55
3968;BME280;9221;42.646;23.380;2023-03-03T07:51:40;94475.47;;;6.34;91.02
3968;BME280;9221;42.646;23.380;2023-03-03T07:56:36;94455.41;;;6.44;91.24
3968;BME280;9221;42.646;23.380;2023-03-03T07:59:17;94457.38;;;6.52;90.50
3968;BME280;9221;42.646;23.380;2023-03-03T08:01:45;94419.16;;;6.29;90.65
3968;BME280;9221;42.646;23.380;2023-03-03T08:06:55;94416.75;;;6.37;90.28
3968;BME280;9221;42.646;23.380;2023-03-03T08:14:35;94431.97;;;6.43;90.04
3968;BME280;9221;42.646;23.380;2023-03-03T08:17:23;94466.06;;;6.32;89.91
3968;BME280;9221;42.646;23.380;2023-03-03T08:19:49;94404.50;;;6.37;90.19
3968;BME280;9221;42.646;23.380;2023-03-03T08:22:18;94401.03;;;6.37;90.60
3968;BME280;9221;42.646;23.380;2023-03-03T08:24:43;94391.66;;;6.34;90.16
3968;BME280;9221;42.646;23.380;2023-03-03T08:27:09;94460.75;;;6.22;89.27
3968;BME280;9221;42.646;23.380;2023-03-03T08:29:34;94385.84;;;6.09;90.44
3968;BME280;9221;42.646;23.380;2023-03-03T08:31:59;94459.78;;;6.65;90.70
3968;BME280;9221;42.646;23.380;2023-03-03T08:34:25;94399.38;;;6.36;90.40
3968;BME280;9221;42.646;23.380;2023-03-03T08:36:50;94456.84;;;6.80;90.94
3968;BME280;9221;42.646;23.380;2023-03-03T08:39:16;94459.19;;;6.83;90.17
3968;BME280;9221;42.646;23.380;2023-03-03T08:41:41;94447.41;;;6.67;90.87
3968;BME280;9221;42.646;23.380;2023-03-03T08:44:09;94454.22;;;6.80;90.54
3968;BME280;9221;42.646;23.380;2023-03-03T08:46:35;94459.00;;;6.74;90.37
3968;BME280;9221;42.646;23.380;2023-03-03T08:49:01;94403.00;;;6.44;91.00
3968;BME280;9221;42.646;23.380;2023-03-03T08:51:26;94454.69;;;6.64;89.44
3968;BME280;9221;42.646;23.380;2023-03-03T08:53:52;94461.47;;;6.66;90.00
3968;BME280;9221;42.646;23.380;2023-03-03T08:56:17;94446.50;;;6.57;90.19
3968;BME280;9221;42.646;23.380;2023-03-03T08:58:43;94399.94;;;6.39;90.92
3968;BME280;9221;42.646;23.380;2023-03-03T09:01:12;94405.81;;;6.53;91.08
3968;BME280;9221;42.646;23.380;2023-03-03T09:03:38;94481.59;;;6.97;90.72
3968;BME280;9221;42.646;23.380;2023-03-03T09:06:03;94453.16;;;6.92;91.13
3968;BME280;9221;42.646;23.380;2023-03-03T09:08:29;94432.69;;;6.76;90.48
3968;BME280;9221;42.646;23.380;2023-03-03T09:10:54;94467.97;;;7.03;90.73
3968;BME280;9221;42.646;23.380;2023-03-03T09:13:20;94464.44;;;7.14;90.21
3968;BME280;9221;42.646;23.380;2023-03-03T09:15:46;94396.56;;;6.80;89.77
3968;BME280;9221;42.646;23.380;2023-03-03T09:18:31;94462.34;;;7.07;88.59
3968;BME280;9221;42.646;23.380;2023-03-03T09:20:59;94452.22;;;6.93;87.90
3968;BME280;9221;42.646;23.380;2023-03-03T09:25:54;94390.53;;;6.58;87.68
3968;BME280;9221;42.646;23.380;2023-03-03T09:28:25;94484.72;;;7.11;87.76
3968;BME280;9221;42.646;23.380;2023-03-03T09:30:52;94479.34;;;7.23;88.08
3968;BME280;9221;42.646;23.380;2023-03-03T09:35:51;94407.47;;;6.85;87.20
3968;BME280;9221;42.646;23.380;2023-03-03T09:38:29;94535.31;;;7.33;87.51
3968;BME280;9221;42.646;23.380;2023-03-03T09:46:21;94443.69;;;7.61;87.58
3968;BME280;9221;42.646;23.380;2023-03-03T10:05:50;94452.31;;;8.22;84.89
3968;BME280;9221;42.646;23.380;2023-03-03T10:08:31;94464.44;;;8.23;84.29
3968;BME280;9221;42.646;23.380;2023-03-03T10:30:18;94375.22;;;7.84;83.95
3968;BME280;9221;42.646;23.380;2023-03-03T10:32:48;94434.88;;;8.30;83.88
3968;BME280;9221;42.646;23.380;2023-03-03T10:43:39;94392.56;;;8.24;83.85
3968;BME280;9221;42.646;23.380;2023-03-03T11:02:20;94443.69;;;8.69;83.07
3968;BME280;9221;42.646;23.380;2023-03-03T11:05:02;94417.94;;;8.72;83.16
3968;BME280;9221;42.646;23.380;2023-03-03T11:15:53;94415.81;;;8.28;82.95
3968;BME280;9221;42.646;23.380;2023-03-03T11:26:53;94390.56;;;8.65;82.68
3968;BME280;9221;42.646;23.380;2023-03-03T11:35:48;94374.31;;;8.22;81.63
3968;BME280;9221;42.646;23.380;2023-03-03T11:38:43;94398.22;;;8.29;82.74
3968;BME280;9221;42.646;23.380;2023-03-03T11:41:22;94387.28;;;8.34;83.20
3968;BME280;9221;42.646;23.380;2023-03-03T11:43:52;94385.06;;;8.39;83.34
3968;BME280;9221;42.646;23.380;2023-03-03T11:49:19;94381.91;;;8.35;83.67
3968;BME280;9221;42.646;23.380;2023-03-03T11:51:57;94350.84;;;8.21;84.26
3968;BME280;9221;42.646;23.380;2023-03-03T11:54:47;94383.97;;;8.41;83.98
3968;BME280;9221;42.646;23.380;2023-03-03T12:03:10;94310.78;;;7.99;83.48
3968;BME280;9221;42.646;23.380;2023-03-03T12:06:01;94326.13;;;8.04;83.40
3968;BME280;9221;42.646;23.380;2023-03-03T12:11:46;94321.22;;;8.19;84.12
3968;BME280;9221;42.646;23.380;2023-03-03T12:17:34;94376.44;;;8.66;83.97
3968;BME280;9221;42.646;23.380;2023-03-03T12:20:12;94377.59;;;8.44;83.60
3968;BME280;9221;42.646;23.380;2023-03-03T12:25:41;94268.78;;;7.99;84.28
3968;BME280;9221;42.646;23.380;2023-03-03T12:33:56;94385.19;;;8.57;84.67
3968;BME280;9221;42.646;23.380;2023-03-03T12:39:26;94389.19;;;8.71;85.22
3968;BME280;9221;42.646;23.380;2023-03-03T12:47:41;94361.53;;;8.57;85.55
3968;BME280;9221;42.646;23.380;2023-03-03T12:57:54;94380.34;;;8.62;85.54
3968;BME280;9221;42.646;23.380;2023-03-03T13:00:42;94322.59;;;8.23;86.07
3968;BME280;9221;42.646;23.380;2023-03-03T13:06:30;94379.94;;;8.57;86.66
3968;BME280;9221;42.646;23.380;2023-03-03T13:11:51;94387.84;;;8.47;87.10
3968;BME280;9221;42.646;23.380;2023-03-03T13:19:40;94361.03;;;8.24;88.01
3968;BME280;9221;42.646;23.380;2023-03-03T13:22:14;94344.78;;;8.01;88.10
3968;BME280;9221;42.646;23.380;2023-03-03T13:27:59;94399.91;;;8.10;88.52
3968;BME280;9221;42.646;23.380;2023-03-03T13:30:32;94313.03;;;7.74;88.58
3968;BME280;9221;42.646;23.380;2023-03-03T13:35:50;94367.59;;;8.00;88.82
3968;BME280;9221;42.646;23.380;2023-03-03T13:38:21;94391.50;;;7.97;88.64
3968;BME280;9221;42.646;23.380;2023-03-03T13:40:58;94372.28;;;7.96;89.16
3968;BME280;9221;42.646;23.380;2023-03-03T13:43:29;94340.09;;;7.65;89.81
3968;BME280;9221;42.646;23.380;2023-03-03T13:46:10;94243.75;;;7.18;89.92
3968;BME280;9221;42.646;23.380;2023-03-03T13:51:22;94378.38;;;7.77;89.86
3968;BME280;9221;42.646;23.380;2023-03-03T13:54:04;94329.06;;;7.52;89.97
3968;BME280;9221;42.646;23.380;2023-03-03T13:59:27;94372.97;;;7.79;89.43
3968;BME280;9221;42.646;23.380;2023-03-03T14:01:57;94367.88;;;7.77;89.58
3968;BME280;9221;42.646;23.380;2023-03-03T14:07:26;94401.72;;;7.61;90.14
3968;BME280;9221;42.646;23.380;2023-03-03T14:10:01;94372.72;;;7.72;90.46
3968;BME280;9221;42.646;23.380;2023-03-03T14:12:39;94386.66;;;7.63;90.60
3968;BME280;9221;42.646;23.380;2023-03-03T14:20:31;94389.00;;;7.66;90.56
3968;BME280;9221;42.646;23.380;2023-03-03T14:23:01;94371.88;;;7.62;90.20
3968;BME280;9221;42.646;23.380;2023-03-03T14:28:16;94288.19;;;7.20;90.14
3968;BME280;9221;42.646;23.380;2023-03-03T14:30:43;94362.78;;;7.66;90.24
3968;BME280;9221;42.646;23.380;2023-03-03T14:35:35;94364.44;;;7.67;90.67
3968;BME280;9221;42.646;23.380;2023-03-03T14:38:05;94392.47;;;7.76;90.87
3968;BME280;9221;42.646;23.380;2023-03-03T14:40:36;94312.78;;;7.48;90.21
3968;BME280;9221;42.646;23.380;2023-03-03T14:43:23;94384.47;;;7.88;90.59
3968;BME280;9221;42.646;23.380;2023-03-03T14:45:49;94362.50;;;7.89;90.65
3968;BME280;9221;42.646;23.380;2023-03-03T14:48:18;94377.41;;;7.88;90.32
3968;BME280;9221;42.646;23.380;2023-03-03T14:55:44;94339.28;;;7.74;90.11
3968;BME280;9221;42.646;23.380;2023-03-03T15:00:50;94354.75;;;7.97;89.90
3968;BME280;9221;42.646;23.380;2023-03-03T15:03:30;94356.69;;;7.95;89.82
3968;BME280;9221;42.646;23.380;2023-03-03T15:05:56;94290.97;;;7.57;89.88
3968;BME280;9221;42.646;23.380;2023-03-03T15:08:36;94350.34;;;7.88;89.93
3968;BME280;9221;42.646;23.380;2023-03-03T15:11:25;94353.38;;;7.73;90.28
3968;BME280;9221;42.646;23.380;2023-03-03T15:13:51;94360.84;;;7.78;90.45
3968;BME280;9221;42.646;23.380;2023-03-03T15:16:21;94342.88;;;7.73;90.53
3968;BME280;9221;42.646;23.380;2023-03-03T15:21:28;94335.66;;;7.95;90.16
3968;BME280;9221;42.646;23.380;2023-03-03T15:24:11;94313.88;;;7.85;90.40
3968;BME280;9221;42.646;23.380;2023-03-03T15:32:09;94337.47;;;8.04;90.13
3968;BME280;9221;42.646;23.380;2023-03-03T15:48:04;94348.56;;;7.59;91.61
3968;BME280;9221;42.646;23.380;2023-03-03T15:50:35;94397.03;;;7.65;91.97
3968;BME280;9221;42.646;23.380;2023-03-03T15:59:08;94395.34;;;7.54;93.01
3968;BME280;9221;42.646;23.380;2023-03-03T16:01:48;94363.59;;;7.47;93.05
3968;BME280;9221;42.646;23.380;2023-03-03T16:04:24;94371.59;;;7.26;93.00
3968;BME280;9221;42.646;23.380;2023-03-03T16:10:05;94370.50;;;7.48;93.52
3968;BME280;9221;42.646;23.380;2023-03-03T16:12:51;94378.09;;;7.51;93.11
3968;BME280;9221;42.646;23.380;2023-03-03T16:18:00;94464.09;;;7.48;93.48
3968;BME280;9221;42.646;23.380;2023-03-03T16:29:00;94431.13;;;7.55;93.10
3968;BME280;9221;42.646;23.380;2023-03-03T16:31:41;94395.66;;;7.60;93.21
3968;BME280;9221;42.646;23.380;2023-03-03T16:34:29;94398.41;;;7.59;92.67
3968;BME280;9221;42.646;23.380;2023-03-03T16:37:02;94399.50;;;7.47;93.69
3968;BME280;9221;42.646;23.380;2023-03-03T16:39:44;94401.13;;;7.48;94.16
3968;BME280;9221;42.646;23.380;2023-03-03T16:42:31;94328.19;;;7.02;93.90
3968;BME280;9221;42.646;23.380;2023-03-03T16:50:47;94350.31;;;7.09;94.08
3968;BME280;9221;42.646;23.380;2023-03-03T17:07:41;94433.19;;;7.61;93.23
3968;BME280;9221;42.646;23.380;2023-03-03T17:10:24;94432.78;;;7.56;93.10
3968;BME280;9221;42.646;23.380;2023-03-03T17:15:55;94381.53;;;7.32;93.35
3968;BME280;9221;42.646;23.380;2023-03-03T17:18:51;94437.34;;;7.54;93.00
3968;BME280;9221;42.646;23.380;2023-03-03T17:24:20;94466.63;;;7.49;93.98
3968;BME280;9221;42.646;23.380;2023-03-03T17:32:15;94470.34;;;7.47;93.95
3968;BME280;9221;42.646;23.380;2023-03-03T17:37:56;94461.72;;;7.25;94.25
3968;BME280;9221;42.646;23.380;2023-03-03T17:44:01;94397.91;;;7.15;94.08
3968;BME280;9221;42.646;23.380;2023-03-03T17:46:00;94472.38;;;7.33;94.27
3968;BME280;9221;42.646;23.380;2023-03-03T17:54:15;94462.72;;;7.43;94.56
3968;BME280;9221;42.646;23.380;2023-03-03T17:57:01;94465.41;;;7.63;94.82
3968;BME280;9221;42.646;23.380;2023-03-03T18:02:15;94503.16;;;7.91;93.80
3968;BME280;9221;42.646;23.380;2023-03-03T18:05:37;94464.19;;;7.87;93.26
3968;BME280;9221;42.646;23.380;2023-03-03T18:08:05;94449.53;;;7.74;91.69
3968;BME280;9221;42.646;23.380;2023-03-03T18:16:51;94491.53;;;7.94;92.50
3968;BME280;9221;42.646;23.380;2023-03-03T18:25:17;94503.19;;;8.11;91.19
3968;BME280;9221;42.646;23.380;2023-03-03T18:27:46;94486.56;;;7.91;90.31
3968;BME280;9221;42.646;23.380;2023-03-03T18:33:08;94497.59;;;7.75;90.84
3968;BME280;9221;42.646;23.380;2023-03-03T18:35:39;94504.78;;;7.73;91.16
3968;BME280;9221;42.646;23.380;2023-03-03T18:41:03;94510.97;;;7.62;90.88
3968;BME280;9221;42.646;23.380;2023-03-03T18:48:57;94548.81;;;7.59;92.55
3968;BME280;9221;42.646;23.380;2023-03-03T19:04:39;94485.88;;;7.89;90.69
3968;BME280;9221;42.646;23.380;2023-03-03T19:12:09;94526.81;;;8.21;89.64
3968;BME280;9221;42.646;23.380;2023-03-03T19:14:47;94493.78;;;7.89;89.11
3968;BME280;9221;42.646;23.380;2023-03-03T19:22:28;94451.31;;;7.64;88.96
3968;BME280;9221;42.646;23.380;2023-03-03T19:30:42;94547.97;;;8.39;87.81
3968;BME280;9221;42.646;23.380;2023-03-03T19:38:48;94572.19;;;8.42;87.88
3968;BME280;9221;42.646;23.380;2023-03-03T19:41:39;94507.75;;;8.28;87.57